Wilmington, Delaware
Current Conditions -  °F | °C
As of 12:51 AM on Friday 19 Dec 2014 (Local Time) from KILG Reporting Station
Broken Clouds Broken Clouds  
Wind Chill: 29°   Ceiling: 3800
Heat Index: 36°   Visibility: 10mi
Dew Point: 25°   Wind: 9mph
Humidity: 64%   Direction: 290°WNW
Pressure: 30.05"   Gusts: NA
Location:  39.74°N, 75.55°W
Report Text: KILG 190551Z 29008KT 10SM BKN038 02/M04 A3005 RMK AO2 SLP177 T00221039 10028 20017 58008
Loading
Personal Weather Stations






























Interactive Weather Map New forecast layout! Learn more

10-Day Weather Forecast

Advertisements
Track Severe Weather on mobile